Terminal Aerodrome Forecast
Issued by NWS Hastings, NE

Home | Current Version | Previous Version | Text Only | Print | Product List | Glossary On
Versions: 1 2 3 4 5 6 7 8 9 10 11 12 13 14 15 16 17 18 19
000
FTUS43 KGID 302322
TAFGRI
TAF
KGRI 302322Z 0100/0124 01011KT P6SM VCSH OVC020
     FM010200 36010KT P6SM VCSH OVC015
     FM010900 36015KT 4SM BR VCSH OVC006
     FM011500 36014KT P6SM OVC005
     FM011700 36014KT P6SM OVC015=

USA.gov is the U.S. government's official web portal to all federal, state and local government web resources and services.